Time;durP1;ratioP1;P1;durP2;ratioP2;P2;SDS_P1;SDS_P2;PMS_P1;PMS_P2;Temp;Humidity;BMP_temperature;BMP_pressure;BME280_temperature;BME280_humidity;BME280_pressure;Samples;Min_cycle;Max_cycle;Signal;HPM_P1;HPM_P2
2023/04/08 00:00:22;;;;;;;44.45;28.95;;;;;;;12.35;54.10;101087.63;5007504;28;20399;-84
2023/04/08 00:02:55;;;;;;;39.92;29.15;;;;;;;12.70;53.70;101134.25;4994566;28;20445;-83
2023/04/08 00:05:26;;;;;;;37.13;27.55;;;;;;;12.60;54.62;101136.06;4999948;28;20041;-82
2023/04/08 00:08:01;;;;;;;41.53;28.55;;;;;;;12.48;54.55;101108.69;5013274;28;20055;-85
2023/04/08 00:10:28;;;;;;;44.05;29.35;;;;;;;12.64;54.52;101133.97;5000689;28;20064;-83
2023/04/08 00:12:55;;;;;;;41.85;28.48;;;;;;;11.77;54.92;101010.22;4997491;28;20058;-81
2023/04/08 00:15:28;;;;;;;38.17;28.58;;;;;;;12.54;54.79;101129.44;5000158;28;20096;-82
2023/04/08 00:17:55;;;;;;;42.92;29.27;;;;;;;12.52;55.17;101142.06;4999982;28;20484;-83
2023/04/08 00:20:29;;;;;;;38.75;28.30;;;;;;;12.44;54.78;101128.59;4993327;28;20152;-85
2023/04/08 00:22:56;;;;;;;41.17;28.33;;;;;;;12.43;55.33;101155.34;4975787;28;20525;-85
2023/04/08 00:25:26;;;;;;;40.30;29.60;;;;;;;12.42;55.52;101148.34;4966750;28;20132;-84
2023/04/08 00:27:56;;;;;;;38.50;29.92;;;;;;;12.37;55.66;101135.44;4979110;28;20415;-81
2023/04/08 00:30:33;;;;;;;37.80;29.23;;;;;;;12.21;56.39;101127.09;4961602;28;20060;-82
2023/04/08 00:33:00;;;;;;;43.63;29.55;;;;;;;12.29;56.14;101144.09;4978680;28;20112;-85
2023/04/08 00:35:37;;;;;;;41.50;30.77;;;;;;;12.32;56.55;101145.66;4999301;28;20053;-84
2023/04/08 00:38:06;;;;;;;40.35;31.63;;;;;;;12.32;56.98;101145.66;4982923;28;20057;-85
2023/04/08 00:40:38;;;;;;;45.80;32.28;;;;;;;11.59;56.83;101033.97;4986120;28;20046;-83
2023/04/08 00:43:08;;;;;;;46.13;32.63;;;;;;;12.24;56.89;101126.84;4977582;28;20054;-84
2023/04/08 00:45:42;;;;;;;45.55;33.15;;;;;;;11.42;58.02;101023.94;4999017;28;20080;-85
2023/04/08 00:48:12;;;;;;;45.33;33.13;;;;;;;12.03;58.41;101151.69;4985012;28;20089;-85
2023/04/08 00:50:43;;;;;;;46.55;33.08;;;;;;;11.60;58.52;101112.75;4981246;28;20506;-85
2023/04/08 00:53:20;;;;;;;43.33;31.05;;;;;;;11.81;59.41;101146.50;4984507;28;20642;-85
2023/04/08 00:55:55;;;;;;;44.17;32.63;;;;;;;11.51;59.26;101108.25;4987242;28;20155;-84
2023/04/08 00:58:22;;;;;;;38.92;31.85;;;;;;;11.24;59.12;101074.22;4984887;28;20078;-85
2023/04/08 01:01:05;;;;;;;40.97;31.77;;;;;;;11.30;59.99;101090.47;4986613;28;20058;-84
2023/04/08 01:04:18;;;;;;;43.53;32.83;;;;;;;11.58;60.33;101146.63;4978326;28;20049;-84
2023/04/08 01:07:02;;;;;;;42.70;32.60;;;;;;;11.52;60.58;101147.13;4910207;28;20055;-84
2023/04/08 01:09:37;;;;;;;44.70;33.80;;;;;;;11.32;60.20;101109.78;4979641;28;20141;-83
2023/04/08 01:12:07;;;;;;;43.28;34.40;;;;;;;11.55;60.93;101163.69;4980321;28;20054;-84
2023/04/08 01:14:41;;;;;;;47.28;33.40;;;;;;;11.52;60.57;101147.13;4997488;28;20160;-84
2023/04/08 01:17:11;;;;;;;44.65;33.50;;;;;;;11.66;59.73;101160.13;4999511;28;20076;-83
2023/04/08 01:19:43;;;;;;;44.22;33.10;;;;;;;11.46;60.92;101169.78;4989996;28;20041;-82
2023/04/08 01:22:23;;;;;;;42.85;33.47;;;;;;;11.46;61.12;101153.00;4998527;28;20049;-84
2023/04/08 01:25:07;;;;;;;46.95;32.20;;;;;;;11.43;60.58;101143.47;4999172;28;20137;-82
2023/04/08 01:27:35;;;;;;;45.03;34.15;;;;;;;11.23;60.48;101110.53;4999826;28;20052;-84
2023/04/08 01:30:18;;;;;;;41.80;31.98;;;;;;;11.26;60.14;101109.44;4997460;28;20049;-85
2023/04/08 01:32:58;;;;;;;44.33;33.83;;;;;;;11.51;60.44;101146.31;5003087;28;20446;-86
2023/04/08 01:35:26;;;;;;;42.45;32.53;;;;;;;11.50;59.64;101127.81;5006640;28;20048;-85
2023/04/08 01:37:59;;;;;;;39.55;30.55;;;;;;;11.05;60.77;101064.28;5000593;28;20057;-84
2023/04/08 01:40:29;;;;;;;39.20;31.13;;;;;;;11.48;60.21;101151.88;5004100;28;20518;-85
2023/04/08 01:43:00;;;;;;;49.53;32.63;;;;;;;11.39;60.97;101157.97;5000074;28;20561;-86
2023/04/08 01:45:29;;;;;;;40.83;31.63;;;;;;;11.18;60.72;101118.06;5003581;28;20069;-85
2023/04/08 01:48:01;;;;;;;41.70;32.33;;;;;;;11.45;59.73;101153.94;4986924;28;20451;-84
2023/04/08 01:50:30;;;;;;;43.35;31.55;;;;;;;11.33;60.89;101130.09;4999131;28;20049;-85
2023/04/08 01:52:59;;;;;;;48.17;33.17;;;;;;;11.45;60.64;101164.56;5003615;28;20295;-85
2023/04/08 01:55:28;;;;;;;43.97;32.08;;;;;;;11.46;60.47;101164.47;4990559;28;20059;-85
2023/04/08 01:57:59;;;;;;;45.97;33.10;;;;;;;11.26;60.72;101130.72;4969228;28;20490;-82
2023/04/08 02:00:30;;;;;;;43.72;32.80;;;;;;;11.41;61.06;101152.50;4988185;28;20050;-84
2023/04/08 02:03:05;;;;;;;44.65;32.40;;;;;;;11.23;60.29;101118.53;4985358;28;20062;-83
2023/04/08 02:05:33;;;;;;;42.53;31.27;;;;;;;11.34;61.36;101136.25;4993814;28;20098;-83
2023/04/08 02:08:05;;;;;;;45.30;32.85;;;;;;;11.38;61.09;101152.78;4994642;28;20103;-85
2023/04/08 02:10:32;;;;;;;45.00;34.17;;;;;;;10.98;60.95;101084.34;4996491;28;20042;-84
2023/04/08 02:13:00;;;;;;;45.17;33.45;;;;;;;10.96;61.12;101088.94;5006803;28;20551;-84
2023/04/08 02:15:32;;;;;;;45.00;32.35;;;;;;;11.20;61.75;101121.44;5002103;28;20049;-85
2023/04/08 02:18:15;;;;;;;40.70;31.38;;;;;;;11.33;61.48;101150.50;4978548;28;20057;-85
2023/04/08 02:21:12;;;;;;;40.85;30.50;;;;;;;10.98;60.71;101073.72;4996456;28;20085;-84
2023/04/08 02:24:00;;;;;;;39.70;31.15;;;;;;;11.29;60.74;101128.66;5003735;28;20336;-83
2023/04/08 02:26:33;;;;;;;38.67;31.02;;;;;;;11.28;61.16;101136.75;4998326;28;20115;-83
2023/04/08 02:29:04;;;;;;;43.38;31.90;;;;;;;11.41;60.27;101136.56;4996872;28;20315;-82
2023/04/08 02:31:35;;;;;;;45.15;31.77;;;;;;;10.67;60.38;101031.09;4992296;28;20049;-85
2023/04/08 02:34:20;;;;;;;43.42;32.33;;;;;;;11.33;60.58;101135.41;4999021;28;20057;-83
2023/04/08 02:36:48;;;;;;;40.95;31.55;;;;;;;11.26;60.95;101146.66;4999258;28;20045;-85
2023/04/08 02:39:19;;;;;;;38.13;30.33;;;;;;;11.08;61.28;101115.31;4994005;28;20427;-84
2023/04/08 02:41:47;;;;;;;41.45;30.17;;;;;;;11.07;61.16;101099.53;5001710;28;20360;-85
2023/04/08 02:44:28;;;;;;;42.90;30.55;;;;;;;10.93;61.76;101082.06;4997554;28;20150;-84
2023/04/08 02:47:03;;;;;;;45.47;32.28;;;;;;;11.20;61.05;101126.75;4997043;28;20125;-81
2023/04/08 02:49:30;;;;;;;40.50;30.67;;;;;;;10.99;61.20;101100.13;4998901;28;20061;-85
2023/04/08 02:52:03;;;;;;;45.00;30.80;;;;;;;10.94;61.60;101091.72;5001829;28;20089;-83
2023/04/08 02:54:30;;;;;;;41.13;31.38;;;;;;;11.00;61.37;101098.34;5016893;28;20049;-85
2023/04/08 02:57:00;;;;;;;43.38;30.17;;;;;;;9.73;61.18;100895.41;5023410;28;20076;-84
2023/04/08 02:59:28;;;;;;;38.30;30.00;;;;;;;10.98;61.62;101133.00;5005499;28;20072;-83
2023/04/08 03:02:03;;;;;;;36.15;27.50;;;;;;;10.57;61.86;101067.34;5008233;28;20053;-85
2023/04/08 03:04:35;;;;;;;37.63;29.33;;;;;;;10.84;62.56;101150.06;4999253;28;20045;-83
2023/04/08 03:07:06;;;;;;;38.17;28.40;;;;;;;10.42;62.50;101090.66;5000499;28;20092;-84
2023/04/08 03:09:36;;;;;;;36.97;29.02;;;;;;;10.74;62.39;101135.84;4995512;28;20292;-82
2023/04/08 03:12:06;;;;;;;34.17;27.13;;;;;;;10.85;62.22;101158.88;4993632;28;20110;-84
2023/04/08 03:14:33;;;;;;;35.03;27.55;;;;;;;10.63;62.01;101127.91;5013371;28;20386;-84
2023/04/08 03:17:07;;;;;;;35.83;27.65;;;;;;;10.83;62.55;101156.34;5001069;28;20053;-82
2023/04/08 03:19:38;;;;;;;37.05;27.92;;;;;;;10.67;62.06;101129.34;5000767;28;20286;-80
2023/04/08 03:22:24;;;;;;;44.75;29.48;;;;;;;10.86;61.81;101182.66;4996996;28;20216;-85
2023/04/08 03:24:51;;;;;;;38.85;27.50;;;;;;;10.42;62.24;101111.91;5005562;28;20077;-84
2023/04/08 03:27:18;;;;;;;41.83;28.17;;;;;;;10.81;62.18;101179.53;5000976;28;20367;-82
2023/04/08 03:29:51;;;;;;;38.70;27.45;;;;;;;10.68;62.50;101162.91;5019669;28;20068;-83
2023/04/08 03:32:21;;;;;;;39.80;28.67;;;;;;;10.65;62.25;101163.13;4999375;28;20053;-83
2023/04/08 03:34:53;;;;;;;36.97;27.40;;;;;;;10.87;62.34;101188.81;4999573;28;20056;-83
2023/04/08 03:37:19;;;;;;;35.40;28.08;;;;;;;10.90;62.10;101189.41;5005139;28;20061;-86
2023/04/08 03:39:46;;;;;;;38.15;27.33;;;;;;;10.88;61.78;101191.34;5018894;28;20530;-84
2023/04/08 03:42:23;;;;;;;36.28;27.88;;;;;;;10.80;61.45;101155.75;5002834;28;20554;-83
2023/04/08 03:44:50;;;;;;;38.58;28.23;;;;;;;10.83;61.54;101171.44;4999017;28;20327;-84
2023/04/08 03:47:20;;;;;;;42.40;27.77;;;;;;;10.92;61.50;101181.31;5002057;28;20774;-85
2023/04/08 03:49:46;;;;;;;39.15;28.00;;;;;;;10.62;61.53;101142.16;4995147;28;20416;-84
2023/04/08 03:52:26;;;;;;;36.75;28.17;;;;;;;10.51;61.48;101128.88;4978482;28;20050;-82
2023/04/08 03:54:55;;;;;;;38.38;27.77;;;;;;;10.72;61.26;101174.97;4982671;28;20065;-84
2023/04/08 03:57:23;;;;;;;41.80;30.42;;;;;;;10.53;62.17;101154.34;4984171;28;20529;-84
2023/04/08 03:59:50;;;;;;;39.90;29.42;;;;;;;10.19;62.27;101103.06;4982339;28;20066;-83
2023/04/08 04:02:19;;;;;;;40.80;28.75;;;;;;;10.78;62.10;101190.41;4985759;28;20123;-82
2023/04/08 04:04:49;;;;;;;39.17;30.10;;;;;;;10.46;61.94;101143.41;4987058;28;20042;-85
2023/04/08 04:07:16;;;;;;;39.55;29.38;;;;;;;10.91;61.85;101207.03;4987648;28;20400;-84
2023/04/08 04:09:43;;;;;;;42.42;29.23;;;;;;;10.89;61.91;101198.34;4984661;28;20446;-85
2023/04/08 04:12:10;;;;;;;43.67;29.38;;;;;;;10.90;61.78;101210.66;4985141;28;20053;-84
2023/04/08 04:14:37;;;;;;;44.30;29.52;;;;;;;10.46;61.07;101116.84;4993044;28;20266;-82
2023/04/08 04:17:04;;;;;;;39.22;29.50;;;;;;;10.74;61.57;101158.91;5017367;28;20076;-82
2023/04/08 04:19:33;;;;;;;44.45;30.70;;;;;;;10.65;61.58;101141.91;4983971;28;20045;-84
2023/04/08 04:22:05;;;;;;;41.05;31.05;;;;;;;10.66;61.61;101154.22;4996831;28;20240;-84
2023/04/08 04:24:33;;;;;;;42.92;31.15;;;;;;;10.83;61.60;101177.59;4982192;28;20391;-84
2023/04/08 04:27:00;;;;;;;40.03;30.85;;;;;;;10.52;61.64;101130.59;4977181;28;20041;-83
2023/04/08 04:29:32;;;;;;;39.20;29.95;;;;;;;11.01;61.54;101200.97;4983380;28;20050;-84
2023/04/08 04:31:59;;;;;;;40.65;30.20;;;;;;;11.09;61.42;101194.09;4988368;28;20060;-83
2023/04/08 04:34:28;;;;;;;40.63;29.65;;;;;;;10.63;61.63;101154.44;4984446;28;20131;-84
2023/04/08 04:36:59;;;;;;;41.53;30.40;;;;;;;10.79;62.39;101199.22;4988276;28;20038;-82
2023/04/08 04:39:30;;;;;;;39.53;30.52;;;;;;;10.80;62.21;101206.22;4983524;28;20050;-85
2023/04/08 04:41:57;;;;;;;41.90;30.77;;;;;;;10.71;62.57;101186.56;4985812;28;20479;-83
2023/04/08 04:44:28;;;;;;;44.15;31.13;;;;;;;10.51;62.35;101160.75;4993229;28;20104;-85
2023/04/08 04:46:59;;;;;;;41.50;31.10;;;;;;;10.53;62.75;101191.50;4984629;28;20054;-84
2023/04/08 04:49:29;;;;;;;40.58;31.50;;;;;;;10.51;62.93;101179.31;4990856;28;20056;-83
2023/04/08 04:51:56;;;;;;;44.25;29.77;;;;;;;10.40;62.76;101156.31;4985468;28;20057;-83
2023/04/08 04:54:25;;;;;;;43.03;31.05;;;;;;;10.69;62.44;101207.91;4984970;28;20061;-84
2023/04/08 04:56:52;;;;;;;42.75;29.75;;;;;;;10.57;62.87;101210.72;5022207;28;20506;-82
2023/04/08 04:59:19;;;;;;;38.35;28.25;;;;;;;9.52;63.00;101027.88;5005450;28;20087;-84
2023/04/08 05:01:46;;;;;;;41.63;29.35;;;;;;;9.83;62.40;101073.19;4992702;28;20355;-85
2023/04/08 05:04:16;;;;;;;44.00;31.98;;;;;;;10.62;63.17;101221.81;4987122;28;20049;-85
2023/04/08 05:06:47;;;;;;;39.50;29.88;;;;;;;10.08;63.06;101122.50;5005271;28;20053;-84
2023/04/08 05:09:17;;;;;;;39.83;29.25;;;;;;;9.99;62.91;101115.25;5019223;28;20140;-84
2023/04/08 05:11:43;;;;;;;38.83;29.00;;;;;;;9.82;62.84;101079.44;5003543;28;20495;-83
2023/04/08 05:14:10;;;;;;;40.70;28.48;;;;;;;10.71;63.21;101215.78;5001737;28;20042;-84
2023/04/08 05:16:42;;;;;;;39.08;28.83;;;;;;;10.71;62.94;101221.09;5023147;28;20239;-82
2023/04/08 05:19:12;;;;;;;37.83;29.25;;;;;;;9.43;63.18;101030.38;5001375;28;20189;-84
2023/04/08 05:21:48;;;;;;;40.80;27.45;;;;;;;9.50;63.60;101043.03;4983592;28;20293;-83
2023/04/08 05:24:15;;;;;;;36.47;28.48;;;;;;;10.59;63.44;101227.38;4986095;28;20060;-84
2023/04/08 05:26:42;;;;;;;35.92;25.92;;;;;;;10.05;63.90;101131.56;4987419;28;20050;-84
2023/04/08 05:29:13;;;;;;;36.67;28.13;;;;;;;9.45;63.78;101029.31;4982796;28;20245;-84
2023/04/08 05:31:40;;;;;;;37.05;27.45;;;;;;;9.40;63.24;101011.09;4986023;28;20405;-84
2023/04/08 05:34:14;;;;;;;40.20;28.30;;;;;;;9.78;63.78;101068.25;4985457;28;20160;-84
2023/04/08 05:36:41;;;;;;;37.28;26.77;;;;;;;10.22;63.12;101146.16;4986211;28;20143;-83
2023/04/08 05:39:08;;;;;;;36.33;26.40;;;;;;;9.86;63.76;101099.47;5005017;28;20284;-85
2023/04/08 05:41:35;;;;;;;36.08;27.05;;;;;;;10.57;63.54;101202.75;5009934;28;20042;-82
2023/04/08 05:44:02;;;;;;;40.20;27.83;;;;;;;10.80;63.19;101236.28;5000365;28;20038;-83
2023/04/08 05:46:32;;;;;;;37.00;26.88;;;;;;;9.39;63.18;101013.88;4985978;28;20108;-81
2023/04/08 05:48:59;;;;;;;34.83;26.02;;;;;;;10.45;63.34;101194.78;4987846;28;20307;-84
2023/04/08 05:51:28;;;;;;;40.40;26.92;;;;;;;10.57;63.23;101210.72;5000097;28;20134;-84
2023/04/08 05:53:54;;;;;;;36.47;25.17;;;;;;;10.76;63.56;101248.13;5001739;28;20347;-83
2023/04/08 05:56:24;;;;;;;35.00;26.60;;;;;;;10.40;63.49;101196.94;5004382;28;20267;-83
2023/04/08 05:58:51;;;;;;;38.75;27.13;;;;;;;10.76;63.82;101253.44;5005583;28;20068;-83
2023/04/08 06:01:20;;;;;;;31.67;24.98;;;;;;;9.39;63.32;101003.25;5005388;28;20052;-85
2023/04/08 06:03:47;;;;;;;39.78;27.77;;;;;;;9.49;63.77;101051.97;5006701;28;20056;-84
2023/04/08 06:06:14;;;;;;;33.92;26.33;;;;;;;10.11;64.12;101164.72;5020701;28;20517;-83
2023/04/08 06:08:46;;;;;;;36.92;25.80;;;;;;;10.88;64.08;101265.72;4994578;28;20058;-85
2023/04/08 06:11:13;;;;;;;39.88;28.15;;;;;;;10.76;63.71;101234.84;4995689;28;20053;-84
2023/04/08 06:13:41;;;;;;;33.83;25.23;;;;;;;9.78;63.51;101080.66;4993744;28;20570;-84
2023/04/08 06:16:18;;;;;;;37.28;27.05;;;;;;;10.08;63.57;101116.38;5004834;28;20057;-85
2023/04/08 06:18:47;;;;;;;32.60;25.50;;;;;;;10.45;63.75;101186.81;4999786;28;20580;-85
2023/04/08 06:21:14;;;;;;;34.55;23.70;;;;;;;11.00;63.88;101273.69;4985663;28;20319;-82
2023/04/08 06:23:41;;;;;;;33.28;26.75;;;;;;;10.91;63.30;101254.84;5018878;28;20394;-84
2023/04/08 06:26:09;;;;;;;33.95;26.85;;;;;;;10.25;63.82;101153.03;5001149;28;20060;-84
2023/04/08 06:28:39;;;;;;;33.33;25.27;;;;;;;10.48;63.75;101194.56;5002092;28;20053;-84
2023/04/08 06:31:09;;;;;;;36.47;27.13;;;;;;;10.68;63.50;101216.88;4996489;28;20451;-84
2023/04/08 06:33:35;;;;;;;37.50;27.58;;;;;;;11.11;63.42;101281.63;4990811;28;20518;-85
2023/04/08 06:36:06;;;;;;;36.53;26.98;;;;;;;10.25;64.05;101140.59;4988214;28;20095;-84
2023/04/08 06:38:36;;;;;;;36.50;26.17;;;;;;;10.10;63.49;101119.72;4989858;28;20625;-85
2023/04/08 06:41:06;;;;;;;35.65;25.55;;;;;;;10.22;63.43;101118.78;4976351;28;20091;-86
2023/04/08 06:43:38;;;;;;;33.05;26.00;;;;;;;10.00;64.21;101099.25;4981818;28;20064;-84
2023/04/08 06:46:10;;;;;;;33.30;26.73;;;;;;;10.39;63.33;101166.09;4982699;28;20362;-85
2023/04/08 06:48:43;;;;;;;40.95;27.48;;;;;;;11.03;64.39;101279.59;5000747;28;20570;-83
2023/04/08 06:51:12;;;;;;;45.55;28.95;;;;;;;10.82;63.67;101238.81;4968152;28;20046;-84
2023/04/08 06:53:51;;;;;;;39.17;27.67;;;;;;;11.09;63.65;101272.94;4967803;28;20464;-86
2023/04/08 06:56:26;;;;;;;38.03;27.35;;;;;;;11.28;63.01;101289.09;4951211;28;20100;-86
2023/04/08 06:58:53;;;;;;;38.30;28.23;;;;;;;10.91;63.30;101233.59;4971924;28;20371;-85
2023/04/08 07:01:20;;;;;;;35.22;25.85;;;;;;;11.12;63.40;101267.41;4974797;28;20447;-82
2023/04/08 07:03:51;;;;;;;38.47;27.90;;;;;;;11.27;63.27;101291.88;4972730;28;20388;-83
2023/04/08 07:06:24;;;;;;;38.80;27.25;;;;;;;11.26;63.05;101295.50;4987416;28;20294;-83
2023/04/08 07:08:54;;;;;;;39.30;28.02;;;;;;;10.18;63.44;101134.06;4999670;28;20403;-85
2023/04/08 07:11:21;;;;;;;37.80;29.48;;;;;;;10.99;63.62;101251.56;4999211;28;20095;-85
2023/04/08 07:13:49;;;;;;;41.13;27.38;;;;;;;9.74;63.77;101065.97;5013726;28;20075;-85
2023/04/08 07:16:16;;;;;;;38.78;29.05;;;;;;;10.62;64.14;101200.56;5004537;28;20053;-84
2023/04/08 07:18:43;;;;;;;38.50;28.60;;;;;;;9.85;63.90;101052.69;4987469;28;20446;-84
2023/04/08 07:21:12;;;;;;;38.63;29.13;;;;;;;11.20;63.24;101253.47;4968674;28;20283;-84
2023/04/08 07:23:51;;;;;;;36.83;29.17;;;;;;;11.30;63.34;101265.06;4971985;28;20053;-85
2023/04/08 07:26:32;;;;;;;37.42;28.90;;;;;;;11.41;63.45;101296.94;4969428;28;20157;-84
2023/04/08 07:29:15;;;;;;;41.92;28.42;;;;;;;11.41;63.43;101298.72;4964255;28;20561;-84
2023/04/08 07:32:01;;;;;;;39.38;29.17;;;;;;;11.00;64.32;101247.97;4975444;28;20053;-84
2023/04/08 07:34:31;;;;;;;41.72;31.10;;;;;;;10.65;64.49;101202.97;4950824;28;20463;-86
2023/04/08 07:37:19;;;;;;;44.22;31.15;;;;;;;11.13;64.41;101271.72;4940457;28;20136;-83
2023/04/08 07:39:53;;;;;;;44.58;31.67;;;;;;;11.38;63.54;101283.03;4967367;28;20412;-85
2023/04/08 07:42:25;;;;;;;42.47;30.90;;;;;;;11.33;63.75;101288.72;4967960;28;20034;-85
2023/04/08 07:44:53;;;;;;;42.77;30.10;;;;;;;10.98;63.87;101222.50;4988764;28;20041;-83
2023/04/08 07:47:33;;;;;;;39.85;31.08;;;;;;;11.57;64.10;101304.47;4969924;28;20042;-85
2023/04/08 07:50:00;;;;;;;44.28;33.13;;;;;;;11.64;63.62;101291.53;4996498;28;20045;-84
2023/04/08 07:52:33;;;;;;;47.22;30.25;;;;;;;11.77;64.31;101292.19;5003334;28;20054;-85
2023/04/08 07:55:05;;;;;;;45.80;31.55;;;;;;;12.01;63.08;101304.47;5001552;28;20052;-85
2023/04/08 07:57:34;;;;;;;42.78;32.17;;;;;;;12.03;62.86;101300.69;5004019;28;20064;-85
2023/04/08 08:00:04;;;;;;;41.13;31.67;;;;;;;12.27;61.87;101310.25;4998240;28;20079;-84
2023/04/08 08:02:32;;;;;;;41.80;30.88;;;;;;;12.21;61.73;101302.78;5006179;28;20056;-83
2023/04/08 08:05:00;;;;;;;43.70;30.50;;;;;;;11.81;61.73;101236.94;5012708;28;20045;-84
2023/04/08 08:07:31;;;;;;;41.78;30.45;;;;;;;11.86;62.21;101245.38;4986161;28;20156;-85
2023/04/08 08:09:59;;;;;;;;;;;;;;;12.18;62.22;101310.06;4958821;28;20330;-84
2023/04/08 08:12:29;;;;;;;42.15;31.45;;;;;;;12.14;61.87;101290.00;5002229;28;19925;-84
2023/04/08 08:14:57;;;;;;;42.05;31.88;;;;;;;12.23;62.15;101306.16;4994259;28;20639;-84
2023/04/08 08:17:29;;;;;;;45.25;32.47;;;;;;;12.37;62.02;101312.00;4996000;28;20484;-84
2023/04/08 08:20:07;;;;;;;40.60;30.00;;;;;;;12.45;62.09;101316.69;4997531;28;20148;-85
2023/04/08 08:22:40;;;;;;;45.40;28.88;;;;;;;12.24;61.83;101254.63;4983830;28;20065;-87
2023/04/08 08:25:20;;;;;;;42.17;29.98;;;;;;;12.31;60.98;101240.66;4961301;28;20085;-85
2023/04/08 08:27:54;;;;;;;38.92;29.90;;;;;;;12.70;61.11;101314.56;4983921;28;20057;-85
2023/04/08 08:30:21;;;;;;;47.72;30.90;;;;;;;12.68;61.26;101306.72;4981823;28;20127;-86
2023/04/08 08:32:49;;;;;;;39.03;27.15;;;;;;;12.64;61.31;101288.47;4985570;28;20520;-86
2023/04/08 08:35:25;;;;;;;40.55;27.90;;;;;;;11.82;61.27;101148.16;4983542;28;20100;-85
2023/04/08 08:37:52;;;;;;;41.42;29.23;;;;;;;12.64;61.36;101267.16;5008010;28;20084;-86
2023/04/08 08:40:29;;;;;;;34.28;26.42;;;;;;;12.91;61.79;101306.50;5007926;28;20216;-86
2023/04/08 08:43:03;;;;;;;32.15;24.77;;;;;;;12.83;61.77;101288.53;4994580;28;20049;-85
2023/04/08 08:45:41;;;;;;;34.00;25.05;;;;;;;13.01;61.16;101297.59;4984180;28;20326;-84
2023/04/08 08:48:10;;;;;;;39.17;24.80;;;;;;;13.07;61.96;101328.19;4985005;28;20064;-85
2023/04/08 08:50:41;;;;;;;35.55;24.75;;;;;;;12.44;60.93;101203.16;5011232;28;20052;-85
2023/04/08 08:53:14;;;;;;;38.80;24.83;;;;;;;12.65;61.23;101218.25;4991362;28;20692;-85
2023/04/08 08:55:43;;;;;;;31.90;23.38;;;;;;;12.92;61.27;101270.91;4992197;28;20319;-84
2023/04/08 08:58:30;;;;;;;33.80;24.02;;;;;;;13.12;61.17;101298.47;4985591;28;20053;-85
2023/04/08 09:01:02;;;;;;;31.13;22.83;;;;;;;13.17;61.27;101288.22;4986225;28;20088;-86
2023/04/08 09:03:33;;;;;;;30.13;23.35;;;;;;;13.50;61.34;101323.56;4986561;28;20062;-85
2023/04/08 09:06:02;;;;;;;28.98;20.58;;;;;;;12.36;60.62;101134.59;4992368;28;20042;-85
2023/04/08 09:08:34;;;;;;;32.45;23.13;;;;;;;13.14;60.51;101253.84;4983931;28;20625;-84
2023/04/08 09:11:11;;;;;;;30.20;22.38;;;;;;;13.59;60.91;101322.72;4984818;28;20126;-86
2023/04/08 09:13:51;;;;;;;31.17;21.27;;;;;;;13.36;60.31;101276.78;4997244;28;20186;-84
2023/04/08 09:16:22;;;;;;;29.50;21.23;;;;;;;13.61;60.41;101299.41;4991936;28;20247;-85
2023/04/08 09:18:51;;;;;;;33.33;20.95;;;;;;;13.72;60.12;101301.13;4991050;28;20045;-85
2023/04/08 09:21:23;;;;;;;29.83;20.92;;;;;;;13.64;59.68;101277.78;4979425;28;20412;-86
2023/04/08 09:23:51;;;;;;;27.73;20.20;;;;;;;12.74;59.61;101108.19;4976025;28;20048;-84
2023/04/08 09:26:23;;;;;;;28.00;21.05;;;;;;;13.54;59.52;101223.59;4987504;28;20081;-83
2023/04/08 09:29:03;;;;;;;27.50;20.60;;;;;;;14.03;59.19;101309.81;4964014;28;20603;-83
2023/04/08 09:32:00;;;;;;;26.63;20.08;;;;;;;14.02;59.43;101305.47;4943240;28;20132;-83
2023/04/08 09:34:40;;;;;;;25.83;18.67;;;;;;;14.24;58.98;101318.50;4963162;28;20484;-83
2023/04/08 09:37:07;;;;;;;30.40;19.92;;;;;;;14.35;58.12;101317.50;4977034;28;20077;-83
2023/04/08 09:39:37;;;;;;;26.42;20.33;;;;;;;14.17;58.46;101303.19;4958252;28;20042;-82
2023/04/08 09:42:11;;;;;;;29.27;21.85;;;;;;;14.16;58.65;101301.53;4967329;28;20335;-83
2023/04/08 09:44:50;;;;;;;23.98;21.42;;;;;;;13.97;58.24;101279.19;4996776;28;20357;-82
2023/04/08 09:47:46;;;;;;;28.70;20.70;;;;;;;13.77;58.29;101235.66;4981574;28;20768;-85
2023/04/08 09:50:22;;;;;;;29.50;21.77;;;;;;;14.48;58.08;101322.53;4996351;28;20068;-84
2023/04/08 09:52:58;;;;;;;32.25;21.02;;;;;;;14.10;57.84;101270.88;4999321;28;20107;-84
2023/04/08 09:55:32;;;;;;;22.50;18.80;;;;;;;14.42;57.64;101309.78;4988910;28;20139;-87
2023/04/08 09:58:24;;;;;;;31.10;21.48;;;;;;;14.20;57.55;101269.06;4991547;28;20042;-84
2023/04/08 10:01:00;;;;;;;30.77;21.42;;;;;;;14.79;57.19;101333.03;4995055;28;20049;-84
2023/04/08 10:03:52;;;;;;;26.98;22.00;;;;;;;14.94;56.57;101316.38;4995146;28;20144;-84
2023/04/08 10:06:26;;;;;;;28.48;20.80;;;;;;;15.03;56.09;101325.34;4996476;28;20049;-84
2023/04/08 10:08:55;;;;;;;25.63;18.90;;;;;;;14.89;55.75;101305.28;5003919;28;20268;-84
2023/04/08 10:11:25;;;;;;;29.60;20.02;;;;;;;14.50;56.04;101245.75;5005180;28;20049;-83
2023/04/08 10:14:03;;;;;;;23.70;18.30;;;;;;;14.74;55.15;101291.56;4972201;28;20824;-86
2023/04/08 10:16:39;;;;;;;24.85;18.55;;;;;;;15.05;55.27;101315.34;4983387;28;20050;-83
2023/04/08 10:19:38;;;;;;;23.52;18.55;;;;;;;15.36;54.41;101333.75;4978838;28;20503;-80
2023/04/08 10:22:33;;;;;;;23.25;17.52;;;;;;;15.65;53.80;101332.72;4985614;28;20133;-82
2023/04/08 10:25:15;;;;;;;18.95;16.63;;;;;;;15.99;53.03;101323.03;4980894;28;20498;-83
2023/04/08 10:27:45;;;;;;;24.60;18.80;;;;;;;16.14;52.50;101322.47;4980834;28;20041;-85
2023/04/08 10:30:27;;;;;;;25.20;16.27;;;;;;;16.50;51.25;101330.44;4981528;28;20042;-82
2023/04/08 10:32:59;;;;;;;23.27;18.40;;;;;;;16.39;51.68;101265.41;4973230;28;20145;-84
2023/04/08 10:35:33;;;;;;;20.38;17.15;;;;;;;15.99;50.63;101172.22;4999302;28;20053;-84
2023/04/08 10:38:16;;;;;;;28.92;19.55;;;;;;;17.20;50.36;101323.13;5001975;28;20380;-85
2023/04/08 10:40:52;;;;;;;21.92;17.52;;;;;;;17.23;49.74;101306.72;5007638;28;20053;-82
2023/04/08 10:43:32;;;;;;;23.02;16.42;;;;;;;17.17;49.50;101296.63;4978331;28;20049;-84
2023/04/08 10:46:16;;;;;;;21.88;17.10;;;;;;;16.96;49.28;101245.25;4954397;28;20053;-84
2023/04/08 10:48:58;;;;;;;23.75;17.23;;;;;;;17.43;48.38;101309.13;4986861;28;20038;-84
2023/04/08 10:51:31;;;;;;;25.67;18.85;;;;;;;17.29;48.36;101279.22;4998472;28;20052;-84
2023/04/08 10:54:15;;;;;;;22.27;17.60;;;;;;;17.30;47.20;101262.09;5009063;28;20052;-84
2023/04/08 10:56:49;;;;;;;21.58;17.67;;;;;;;17.57;46.84;101283.47;4997788;28;20535;-83
2023/04/08 10:59:28;;;;;;;23.30;17.48;;;;;;;17.58;46.92;101261.84;5000515;28;20047;-85
2023/04/08 11:01:55;;;;;;;21.88;16.75;;;;;;;17.85;46.12;101278.66;5011136;28;20104;-85
2023/04/08 11:04:24;;;;;;;20.80;16.48;;;;;;;17.85;46.34;101254.50;5000258;28;20176;-84
2023/04/08 11:06:53;;;;;;;22.45;17.65;;;;;;;18.23;46.44;101295.09;4986983;28;20037;-84
2023/04/08 11:09:20;;;;;;;23.27;17.45;;;;;;;18.18;45.86;101260.69;5003936;28;20042;-85
2023/04/08 11:11:51;;;;;;;24.20;18.67;;;;;;;18.10;45.06;101272.25;5000457;28;20037;-82
2023/04/08 11:14:24;;;;;;;29.67;17.77;;;;;;;18.11;45.39;101262.38;4987481;28;20376;-84
2023/04/08 11:16:53;;;;;;;20.45;16.08;;;;;;;18.20;45.48;101272.09;4982889;28;20433;-84
2023/04/08 11:19:23;;;;;;;20.65;17.52;;;;;;;18.14;44.84;101219.88;4982789;28;20050;-83
2023/04/08 11:21:50;;;;;;;20.55;16.20;;;;;;;18.61;43.65;101220.06;4980130;28;20445;-83
2023/04/08 11:24:17;;;;;;;21.00;17.23;;;;;;;18.90;43.27;101252.59;4984045;28;20384;-86
2023/04/08 11:26:44;;;;;;;21.52;17.77;;;;;;;18.94;43.25;101264.69;4985396;28;20046;-84
2023/04/08 11:29:13;;;;;;;19.15;16.05;;;;;;;18.68;42.76;101196.84;4983380;28;20149;-82
2023/04/08 11:31:48;;;;;;;17.90;15.95;;;;;;;19.11;41.55;101253.84;4982529;28;20075;-81